Terminal Aerodrome Forecast
Issued by NWS Sioux Falls, SD

Home | Current Version | Previous Version | Text Only | Print | Product List | Glossary On
Versions: 1 2 3 4 5 6 7 8 9 10 11 12 13 14 15 16 17 18 19 20
000
FTUS43 KFSD 231441 AAB
TAFFSD
TAF AMD
KFSD 231441Z 2315/2412 VRB03KT P6SM SCT250
     FM231700 22007KT P6SM SKC
     FM232300 16005KT P6SM SCT250
     FM240700 16007KT 4SM BR SCT150
     FM240900 17005KT 2SM BR SCT006=

USA.gov is the U.S. government's official web portal to all federal, state and local government web resources and services.